Huvudsida
METAR-TAF:

METAR-TAF

Flygplatser :

N'Djamena, Tchad

latitud: 12-08N, longitud: 015-02E, höjd: 295 m

Aktuellt väderrapport

Denna rapport gjordes för 15 timmar och 49 minuter sedan, klockan 15:00 UTC
Vind 5 kt varierande vindriktning
Temperatur 38°C
Fuktighet 8%
Tryck 1005 hPa
Sikt 10 km eller mer
Inga moln under 1 500 m eller inga cumulonimbus

METAR: FTTJ 201500Z VRB05KT CAVOK 38/M02 Q1005 NOSIG

Tid: 07:49 (06:49 UTC)

Väderprognos

Denna rapport gjordes för 19 timmar och 49 minuter sedan, klockan 11:00 UTC
Prognos gäller från 20 kl. 12 UTC till 21 kl. 18 UTC
Vind 7 kt från nord/nordost
Sikt 10 km eller mer
Inga moln under 1 500 m eller inga cumulonimbus
Temporärt
från 20 kl. 16 UTC till 20 kl. 19 UTC
Sikt: 4000 m
torrdis

TAF: FTTJ 201100Z 2012/2118 02007KT CAVOK TEMPO 2016/2019 4000 HZ

Aktuella väderrapporter och prognoser från 4000 flygplatser (METAR- och TAF-rapporter).

De tillgängliga stationerna syns som gula och röda prickar på kartan.

För musen över prickarna för att se namnen på stationerna.

Klicka sedan för att få väderrapporter och prognoser.

För att ändra kartan: Klicka på de gröna knapparna med ett svart kors på för att zooma in; den gröna knappen med ett streck på för att zooma ut; eller på de gröna pilarna för angränsande kartor.


METAR-TAF: